Time;durP1;ratioP1;P1;durP2;ratioP2;P2;SDS_P1;SDS_P2;PMS_P1;PMS_P2;Temp;Humidity;BMP_temperature;BMP_pressure;BME280_temperature;BME280_humidity;BME280_pressure;Samples;Min_cycle;Max_cycle;Signal;HPM_P1;HPM_P2
2022/09/27 00:01:08;;;;;;;4.70;0.22;;;;;;;13.62;74.40;99873.94;7384903;19;20025;-84
2022/09/27 00:03:36;;;;;;;4.10;0.20;;;;;;;13.59;74.15;99887.56;7389113;19;20014;-83
2022/09/27 00:06:26;;;;;;;2.53;0.10;;;;;;;13.56;74.18;99882.66;7385891;19;20031;-84
2022/09/27 00:08:58;;;;;;;3.58;0.65;;;;;;;13.57;74.25;99894.03;7383075;19;20022;-82
2022/09/27 00:11:37;;;;;;;5.47;0.20;;;;;;;13.54;74.21;99889.97;7388600;19;20476;-83
2022/09/27 00:14:07;;;;;;;3.03;0.20;;;;;;;13.55;74.36;99882.88;7386409;19;20021;-84
2022/09/27 00:16:37;;;;;;;1.80;0.30;;;;;;;13.55;74.11;99885.50;7386361;19;20037;-84
2022/09/27 00:19:08;;;;;;;3.10;0.20;;;;;;;13.54;74.22;99891.81;7384875;19;20035;-84
2022/09/27 00:21:36;;;;;;;1.92;0.10;;;;;;;13.54;74.22;99889.97;7388401;19;20043;-83
2022/09/27 00:24:04;;;;;;;4.22;0.20;;;;;;;13.55;73.67;99896.91;7384750;19;20580;-83
2022/09/27 00:26:31;;;;;;;3.72;0.20;;;;;;;13.55;74.37;99893.44;7388887;19;20010;-84
2022/09/27 00:28:58;;;;;;;4.97;0.20;;;;;;;13.55;73.85;99888.97;7383526;19;20046;-84
2022/09/27 00:31:28;;;;;;;3.22;0.20;;;;;;;13.53;73.94;99888.34;7387512;19;20011;-83
2022/09/27 00:33:58;;;;;;;3.20;0.40;;;;;;;13.55;73.84;99898.72;7386647;19;20029;-83
2022/09/27 00:36:27;;;;;;;4.55;0.20;;;;;;;13.51;73.63;99895.63;7388728;19;20385;-83
2022/09/27 00:38:55;;;;;;;4.28;0.20;;;;;;;13.50;74.17;99896.69;7386069;19;20354;-85
2022/09/27 00:41:29;;;;;;;3.20;0.20;;;;;;;13.51;73.95;99890.34;7388505;19;20030;-83
2022/09/27 00:44:00;;;;;;;4.40;0.30;;;;;;;13.51;74.06;99895.63;7386712;19;20019;-83
2022/09/27 00:46:36;;;;;;;1.48;0.20;;;;;;;13.51;74.04;99887.72;7388416;19;20433;-83
2022/09/27 00:49:30;;;;;;;5.43;0.20;;;;;;;13.52;74.67;99892.00;7384982;19;20014;-83
2022/09/27 00:52:06;;;;;;;4.22;0.20;;;;;;;13.52;73.57;99897.28;7386457;19;20341;-83
2022/09/27 00:54:39;;;;;;;2.03;0.10;;;;;;;13.43;74.32;99893.16;7386842;19;20015;-82
2022/09/27 00:57:07;;;;;;;4.20;0.30;;;;;;;13.45;73.87;99895.63;7373356;19;20010;-82
2022/09/27 00:59:42;;;;;;;2.92;0.20;;;;;;;13.40;74.91;99890.91;7380248;19;20038;-82
2022/09/27 01:02:10;;;;;;;4.28;0.30;;;;;;;13.38;74.59;99892.94;7385023;19;20015;-84
2022/09/27 01:04:39;;;;;;;2.75;0.20;;;;;;;13.35;74.54;99898.63;7383993;19;20014;-83
2022/09/27 01:07:07;;;;;;;5.72;0.20;;;;;;;13.32;74.88;99895.53;7383768;19;20515;-84
2022/09/27 01:09:38;;;;;;;2.40;0.40;;;;;;;13.31;74.92;99897.34;7382199;19;20637;-82
2022/09/27 01:12:17;;;;;;;3.67;0.20;;;;;;;13.28;74.60;99893.28;7386606;19;20039;-82
2022/09/27 01:15:10;;;;;;;3.20;0.30;;;;;;;13.25;74.89;99890.22;7384675;19;20043;-83
2022/09/27 01:18:15;;;;;;;1.63;0.10;;;;;;;13.22;75.06;99894.03;7386679;19;20094;-81
2022/09/27 01:20:57;;;;;;;4.18;0.20;;;;;;;13.16;75.09;99894.00;7386597;19;20018;-83
2022/09/27 01:23:47;;;;;;;3.10;0.28;;;;;;;13.14;74.99;99880.19;7385265;19;20518;-82
2022/09/27 01:26:42;;;;;;;0.63;0.10;;;;;;;13.15;74.84;99873.91;7392472;19;20023;-82
2022/09/27 01:29:40;;;;;;;3.63;0.30;;;;;;;13.17;74.25;99880.59;7390378;19;20040;-84
2022/09/27 01:32:31;;;;;;;2.38;0.10;;;;;;;13.13;74.32;99887.28;7393982;19;20494;-83
2022/09/27 01:35:21;;;;;;;1.17;0.10;;;;;;;13.12;74.33;99892.75;7388078;19;20633;-83
2022/09/27 01:38:07;;;;;;;2.83;0.15;;;;;;;13.15;74.26;99887.91;7378832;19;20015;-83
2022/09/27 01:41:12;;;;;;;7.05;0.20;;;;;;;13.16;74.39;99883.44;7391076;19;20010;-82
2022/09/27 01:43:58;;;;;;;3.95;0.77;;;;;;;13.17;74.18;99895.63;7388230;19;20015;-82
2022/09/27 01:46:38;;;;;;;3.92;0.10;;;;;;;13.15;74.37;99881.81;7393957;19;20027;-84
2022/09/27 01:49:15;;;;;;;6.47;0.20;;;;;;;13.15;74.38;99880.00;7385045;19;20309;-82
2022/09/27 01:52:06;;;;;;;2.55;0.17;;;;;;;13.14;74.46;99881.00;7393105;19;20010;-83
2022/09/27 01:54:43;;;;;;;4.70;0.20;;;;;;;13.13;74.48;99875.91;7391202;19;20018;-83
2022/09/27 01:57:22;;;;;;;2.33;0.17;;;;;;;13.11;74.70;99865.53;7388834;19;20022;-83
2022/09/27 01:59:58;;;;;;;3.08;0.15;;;;;;;13.10;74.44;99871.81;7390210;19;20022;-82
2022/09/27 02:02:40;;;;;;;0.98;0.20;;;;;;;13.09;74.58;99877.25;7386681;19;20023;-84
2022/09/27 02:05:39;;;;;;;3.13;0.55;;;;;;;13.07;74.58;99885.38;7393577;19;20014;-83
2022/09/27 02:08:36;;;;;;;3.20;0.10;;;;;;;13.01;74.68;99891.41;7390667;19;20025;-83
2022/09/27 02:11:12;;;;;;;1.77;0.10;;;;;;;12.99;74.81;99888.16;7391672;19;20014;-83
2022/09/27 02:13:51;;;;;;;3.88;0.20;;;;;;;12.97;74.30;99895.47;7389217;19;20488;-83
2022/09/27 02:16:52;;;;;;;2.58;0.20;;;;;;;12.97;73.98;99890.19;7390360;19;20011;-84
2022/09/27 02:19:41;;;;;;;3.28;0.28;;;;;;;12.96;74.47;99887.72;7387418;19;20027;-82
2022/09/27 02:22:27;;;;;;;3.40;0.20;;;;;;;12.94;74.56;99893.22;7391796;19;20019;-84
2022/09/27 02:25:07;;;;;;;1.50;0.20;;;;;;;12.93;74.32;99888.94;7391832;19;20022;-83
2022/09/27 02:27:41;;;;;;;3.05;0.35;;;;;;;12.91;74.44;99898.03;7387710;19;20032;-84
2022/09/27 02:30:13;;;;;;;2.58;0.20;;;;;;;12.91;73.92;99898.84;7390884;19;20022;-83
2022/09/27 02:32:42;;;;;;;4.30;0.20;;;;;;;12.86;74.32;99896.78;7390978;19;20010;-83
2022/09/27 02:35:16;;;;;;;2.25;0.20;;;;;;;12.84;74.88;99888.25;7387940;19;20372;-82
2022/09/27 02:37:44;;;;;;;1.55;0.10;;;;;;;12.81;74.51;99887.81;7390860;19;20501;-83
2022/09/27 02:40:12;;;;;;;2.25;0.30;;;;;;;12.78;74.37;99880.28;7388829;19;20006;-84
2022/09/27 02:42:42;;;;;;;2.10;0.15;;;;;;;12.71;74.81;99888.13;7392123;19;20010;-83
2022/09/27 02:45:11;;;;;;;4.97;0.52;;;;;;;12.67;75.38;99884.25;7387242;19;20072;-85
2022/09/27 02:47:54;;;;;;;2.90;0.10;;;;;;;12.68;75.13;99885.88;7387217;19;20018;-83
2022/09/27 02:50:37;;;;;;;;;;;;;;;12.66;75.32;99879.16;7386236;19;20021;-83
2022/09/27 02:53:27;;;;;;;3.30;0.10;;;;;;;12.64;75.30;99876.72;7388298;19;19925;-82
2022/09/27 02:56:06;;;;;;;5.03;0.10;;;;;;;12.58;74.94;99869.56;7387084;19;20011;-83
2022/09/27 02:58:57;;;;;;;3.75;0.20;;;;;;;12.58;75.32;99869.56;7388555;19;20019;-83
2022/09/27 03:01:33;;;;;;;1.35;0.20;;;;;;;12.59;75.46;99865.09;7388961;19;20082;-82
2022/09/27 03:04:16;;;;;;;5.70;0.20;;;;;;;12.57;75.27;99857.34;7389867;19;20017;-82
2022/09/27 03:06:46;;;;;;;3.30;0.10;;;;;;;12.56;75.17;99857.53;7390418;19;20010;-82
2022/09/27 03:09:23;;;;;;;6.90;0.20;;;;;;;12.56;75.41;99854.91;7387500;19;20448;-83
2022/09/27 03:11:50;;;;;;;3.90;0.20;;;;;;;12.54;74.80;99856.94;7387775;19;20024;-83
2022/09/27 03:14:17;;;;;;;3.58;0.20;;;;;;;12.53;74.85;99850.00;7385617;19;20050;-83
2022/09/27 03:16:45;;;;;;;2.97;0.20;;;;;;;12.52;74.76;99858.94;7387528;19;20086;-83
2022/09/27 03:19:12;;;;;;;6.00;0.13;;;;;;;12.51;74.20;99852.00;7385900;19;20040;-83
2022/09/27 03:21:40;;;;;;;5.55;0.20;;;;;;;12.50;74.55;99855.66;7388594;19;20026;-83
2022/09/27 03:24:09;;;;;;;3.28;0.40;;;;;;;12.52;74.51;99848.38;7386362;19;20013;-83
2022/09/27 03:26:36;;;;;;;4.22;0.25;;;;;;;12.49;74.05;99854.03;7388967;19;20482;-84
2022/09/27 03:29:03;;;;;;;2.72;0.20;;;;;;;12.47;74.20;99850.75;7381499;19;20082;-83
2022/09/27 03:31:30;;;;;;;8.85;1.35;;;;;;;12.43;74.02;99851.16;7387540;19;20415;-83
2022/09/27 03:33:57;;;;;;;7.22;0.20;;;;;;;12.41;73.79;99857.59;7387263;19;20019;-83
2022/09/27 03:36:25;;;;;;;4.03;0.22;;;;;;;12.37;73.97;99859.81;7386436;19;20014;-83
2022/09/27 03:38:53;;;;;;;4.75;0.45;;;;;;;12.35;74.03;99868.91;7387741;19;20019;-83
2022/09/27 03:41:20;;;;;;;4.07;0.30;;;;;;;12.35;74.25;99863.63;7389859;19;20013;-83
2022/09/27 03:43:48;;;;;;;4.85;0.20;;;;;;;12.33;73.89;99855.09;7388853;19;20036;-83
2022/09/27 03:46:15;;;;;;;2.75;0.20;;;;;;;12.29;74.15;99848.59;7388237;19;20053;-83
2022/09/27 03:48:42;;;;;;;4.72;0.25;;;;;;;12.26;74.18;99852.41;7388368;19;20011;-83
2022/09/27 03:51:11;;;;;;;2.90;0.20;;;;;;;12.26;74.45;99856.84;7383338;19;20671;-82
2022/09/27 03:53:38;;;;;;;6.35;0.30;;;;;;;12.26;74.44;99855.03;7386876;19;20022;-83
2022/09/27 03:56:06;;;;;;;13.63;0.63;;;;;;;12.26;74.15;99855.03;7388158;19;20025;-83
2022/09/27 03:58:33;;;;;;;3.28;0.20;;;;;;;12.26;74.06;99867.41;7385414;19;20018;-83
2022/09/27 04:01:00;;;;;;;4.03;0.20;;;;;;;12.27;74.54;99866.41;7386300;19;20368;-83
2022/09/27 04:03:28;;;;;;;2.50;0.10;;;;;;;12.28;74.01;99852.22;7385996;19;20022;-83
2022/09/27 04:05:55;;;;;;;3.78;0.20;;;;;;;12.29;73.47;99857.28;7385041;19;20349;-83
2022/09/27 04:08:22;;;;;;;3.95;0.20;;;;;;;12.30;73.75;99858.09;7386156;19;20029;-83
2022/09/27 04:10:50;;;;;;;4.13;0.20;;;;;;;12.31;73.38;99862.38;7386790;19;20110;-83
2022/09/27 04:13:18;;;;;;;3.33;0.13;;;;;;;12.32;73.12;99850.84;7386533;19;20011;-83
2022/09/27 04:15:45;;;;;;;3.72;0.20;;;;;;;12.27;73.19;99859.31;7385984;19;20054;-83
2022/09/27 04:18:18;;;;;;;4.03;0.13;;;;;;;12.22;73.40;99859.06;7385149;19;20010;-83
2022/09/27 04:20:45;;;;;;;3.55;0.20;;;;;;;12.22;73.90;99866.16;7385789;19;20006;-83
2022/09/27 04:23:12;;;;;;;5.00;0.20;;;;;;;12.21;73.72;99872.41;7385475;19;20511;-82
2022/09/27 04:25:39;;;;;;;3.05;0.35;;;;;;;12.21;73.56;99862.69;7384991;19;20358;-84
2022/09/27 04:28:07;;;;;;;3.78;0.20;;;;;;;12.20;73.29;99865.50;7386518;19;20018;-83
2022/09/27 04:30:34;;;;;;;6.38;0.20;;;;;;;12.18;73.58;99872.81;7386032;19;20007;-83
2022/09/27 04:33:01;;;;;;;5.85;0.20;;;;;;;12.19;73.52;99867.31;7385278;19;20485;-83
2022/09/27 04:38:14;;;;;;;5.30;0.30;;;;;;;12.22;73.24;99858.25;7388594;19;20064;-83
2022/09/27 04:40:41;;;;;;;4.30;0.20;;;;;;;12.23;73.38;99860.69;7384009;19;20051;-83
2022/09/27 04:43:09;;;;;;;6.20;0.35;;;;;;;12.26;73.48;99854.22;7387788;19;20031;-83
2022/09/27 04:45:36;;;;;;;5.18;0.65;;;;;;;12.25;73.55;99858.66;7386494;19;20017;-83
2022/09/27 04:48:03;;;;;;;5.60;0.35;;;;;;;12.25;73.63;99858.66;7385881;19;20031;-83
2022/09/27 04:50:31;;;;;;;2.65;0.10;;;;;;;12.25;73.23;99850.75;7382988;19;20011;-82
2022/09/27 04:53:02;;;;;;;2.95;0.20;;;;;;;12.25;73.20;99852.56;7385441;19;20035;-81
2022/09/27 04:55:29;;;;;;;4.82;0.20;;;;;;;12.22;73.04;99848.50;7385958;19;20010;-83
2022/09/27 04:57:56;;;;;;;1.88;0.10;;;;;;;12.24;73.14;99856.25;7384776;19;20053;-82
2022/09/27 05:00:24;;;;;;;4.63;0.20;;;;;;;12.20;73.23;99855.78;7389960;19;20491;-82
2022/09/27 05:02:51;;;;;;;7.63;0.20;;;;;;;12.17;73.70;99842.97;7394883;19;20412;-83
2022/09/27 05:05:19;;;;;;;4.30;0.45;;;;;;;12.17;73.89;99840.34;7392860;19;20014;-82
2022/09/27 05:07:46;;;;;;;5.20;0.20;;;;;;;12.21;74.16;99843.41;7393204;19;20014;-82
2022/09/27 05:10:13;;;;;;;2.85;0.30;;;;;;;12.21;73.98;99835.50;7388915;19;20043;-83
2022/09/27 05:12:41;;;;;;;3.80;0.52;;;;;;;12.20;73.78;99845.22;7394418;19;20024;-83
2022/09/27 05:15:09;;;;;;;4.28;0.15;;;;;;;12.21;73.71;99849.50;7392948;19;20509;-83
2022/09/27 05:17:36;;;;;;;3.75;0.50;;;;;;;12.23;74.21;99844.06;7393854;19;20045;-83
2022/09/27 05:20:04;;;;;;;2.47;0.30;;;;;;;12.26;73.80;99841.03;7388052;19;20026;-83
2022/09/27 05:22:31;;;;;;;7.32;0.20;;;;;;;12.28;73.73;99846.94;7393149;19;20019;-83
2022/09/27 05:24:59;;;;;;;4.60;0.17;;;;;;;12.31;73.79;99846.56;7389411;19;20057;-84
2022/09/27 05:27:26;;;;;;;3.85;0.30;;;;;;;12.33;73.50;99840.09;7391337;19;20010;-84
2022/09/27 05:29:55;;;;;;;4.55;0.30;;;;;;;12.37;73.99;99844.00;7390809;19;20097;-83
2022/09/27 05:32:22;;;;;;;2.05;0.30;;;;;;;12.37;73.63;99838.72;7393245;19;20519;-83
2022/09/27 05:34:52;;;;;;;4.78;0.22;;;;;;;12.42;73.87;99843.41;7392543;19;20021;-83
2022/09/27 05:37:30;;;;;;;5.45;0.15;;;;;;;12.46;73.19;99833.28;7391870;19;20018;-83
2022/09/27 05:39:57;;;;;;;4.70;0.20;;;;;;;12.43;72.66;99832.69;7392042;19;20058;-85
2022/09/27 05:42:24;;;;;;;3.20;0.20;;;;;;;12.43;73.25;99835.31;7392219;19;20048;-83
2022/09/27 05:44:57;;;;;;;4.20;0.77;;;;;;;12.45;73.02;99837.75;7390971;19;20014;-82
2022/09/27 05:47:25;;;;;;;2.47;0.20;;;;;;;12.42;72.85;99831.06;7393071;19;20007;-83
2022/09/27 05:49:54;;;;;;;3.45;0.20;;;;;;;12.44;73.78;99830.88;7387548;19;20007;-85
2022/09/27 05:52:21;;;;;;;3.03;0.20;;;;;;;12.47;72.78;99829.66;7388328;19;20018;-83
2022/09/27 05:55:00;;;;;;;2.50;0.22;;;;;;;12.49;73.10;99815.28;7388643;19;20010;-82
2022/09/27 05:57:30;;;;;;;6.65;0.40;;;;;;;12.52;72.90;99822.81;7391971;19;20021;-83
2022/09/27 05:59:59;;;;;;;4.47;0.20;;;;;;;12.52;72.86;99822.81;7391608;19;20069;-83
2022/09/27 06:02:26;;;;;;;2.58;0.10;;;;;;;12.55;72.81;99817.13;7389482;19;20086;-85
2022/09/27 06:05:03;;;;;;;4.25;0.25;;;;;;;12.57;73.40;99816.94;7391117;19;20019;-84
2022/09/27 06:07:31;;;;;;;6.18;0.22;;;;;;;12.60;72.62;99820.03;7389249;19;20078;-82
2022/09/27 06:09:58;;;;;;;5.45;0.20;;;;;;;12.59;72.13;99821.06;7387231;19;20018;-83
2022/09/27 06:12:25;;;;;;;4.82;0.20;;;;;;;12.63;72.29;99817.03;7390571;19;20023;-82
2022/09/27 06:14:56;;;;;;;3.92;0.35;;;;;;;12.64;72.33;99817.84;7388275;19;20110;-84
2022/09/27 06:17:24;;;;;;;4.72;0.25;;;;;;;12.65;72.37;99814.16;7389054;19;20018;-83
2022/09/27 06:19:51;;;;;;;5.97;0.20;;;;;;;12.67;72.41;99820.91;7388289;19;20010;-83
2022/09/27 06:22:18;;;;;;;5.65;0.68;;;;;;;12.70;72.21;99832.88;7390887;19;20516;-85
2022/09/27 06:24:45;;;;;;;4.30;0.20;;;;;;;12.71;72.15;99829.25;7389017;19;20037;-81
2022/09/27 06:27:12;;;;;;;3.53;0.20;;;;;;;12.71;71.89;99835.34;7391117;19;20468;-83
2022/09/27 06:29:39;;;;;;;1.45;0.47;;;;;;;12.76;71.49;99840.03;7387483;19;20007;-84
2022/09/27 06:32:06;;;;;;;3.03;0.20;;;;;;;12.74;71.42;99818.31;7390074;19;20058;-84
2022/09/27 06:34:35;;;;;;;4.55;0.22;;;;;;;12.74;71.46;99810.41;7389227;19;20029;-83
2022/09/27 06:37:02;;;;;;;4.68;1.02;;;;;;;12.78;71.89;99806.38;7389647;19;20081;-83
2022/09/27 06:39:32;;;;;;;2.97;0.10;;;;;;;12.81;71.63;99809.44;7387485;19;20036;-82
2022/09/27 06:41:59;;;;;;;2.30;0.38;;;;;;;12.83;71.45;99804.78;7388013;19;20444;-83
2022/09/27 06:44:27;;;;;;;2.80;0.20;;;;;;;12.85;72.07;99810.66;7390142;19;20014;-83
2022/09/27 06:46:54;;;;;;;1.20;0.10;;;;;;;12.88;72.50;99798.91;7389523;19;20476;-82
2022/09/27 06:49:21;;;;;;;3.70;0.20;;;;;;;12.88;71.19;99796.28;7389833;19;20377;-84
2022/09/27 06:51:49;;;;;;;2.85;0.10;;;;;;;12.88;72.04;99796.28;7391959;19;20018;-82
2022/09/27 06:54:17;;;;;;;7.78;0.70;;;;;;;13.04;77.32;99798.63;7386081;19;20371;-84
2022/09/27 06:56:50;;;;;;;5.45;0.20;;;;;;;13.10;77.16;99795.22;7391010;19;20078;-84
2022/09/27 07:02:05;;;;;;;1.67;0.10;;;;;;;13.17;71.81;99792.63;7389176;19;20025;-83
2022/09/27 07:04:42;;;;;;;3.58;0.47;;;;;;;13.16;70.98;99802.34;7385238;19;20014;-84
2022/09/27 07:07:11;;;;;;;4.68;0.20;;;;;;;13.11;70.38;99809.19;7392744;19;20380;-85
2022/09/27 07:09:39;;;;;;;3.63;0.20;;;;;;;13.08;70.57;99814.88;7388744;19;20021;-83
2022/09/27 07:12:06;;;;;;;3.10;0.20;;;;;;;13.08;70.98;99813.06;7388822;19;20018;-82
2022/09/27 07:14:34;;;;;;;4.97;0.20;;;;;;;13.11;70.29;99814.47;7387517;19;20152;-83
2022/09/27 07:17:02;;;;;;;3.20;0.22;;;;;;;13.09;71.58;99819.16;7391801;19;20025;-83
2022/09/27 07:19:29;;;;;;;1.33;0.45;;;;;;;13.11;70.58;99820.63;7387557;19;20015;-87
2022/09/27 07:21:57;;;;;;;2.70;0.50;;;;;;;13.11;70.00;99817.13;7385885;19;20071;-84
2022/09/27 07:24:24;;;;;;;3.78;0.10;;;;;;;13.10;69.67;99813.69;7389618;19;20039;-84
2022/09/27 07:26:51;;;;;;;5.93;0.13;;;;;;;13.13;70.42;99821.25;7392467;19;20006;-82
2022/09/27 07:29:18;;;;;;;2.65;0.20;;;;;;;13.15;70.76;99819.25;7387268;19;20081;-85
2022/09/27 07:31:46;;;;;;;3.05;0.30;;;;;;;13.17;70.79;99817.19;7389809;19;20018;-85
2022/09/27 07:34:17;;;;;;;3.40;0.15;;;;;;;13.21;70.64;99814.97;7387109;19;20029;-83
2022/09/27 07:36:44;;;;;;;1.88;0.25;;;;;;;13.21;70.54;99809.69;7389012;19;20018;-85
2022/09/27 07:39:11;;;;;;;4.68;0.40;;;;;;;13.24;70.92;99804.88;7387466;19;20029;-85
2022/09/27 07:41:39;;;;;;;4.25;0.40;;;;;;;13.26;70.26;99805.47;7389546;19;20437;-83
2022/09/27 07:44:07;;;;;;;8.25;0.30;;;;;;;13.26;70.28;99799.34;7382509;19;20022;-83
2022/09/27 07:46:33;;;;;;;6.07;0.30;;;;;;;13.25;70.73;99801.22;7387783;19;20018;-86
2022/09/27 07:49:03;;;;;;;2.50;0.20;;;;;;;13.27;71.42;99799.19;7388324;19;20011;-84
2022/09/27 07:51:30;;;;;;;3.15;0.95;;;;;;;13.32;73.03;99789.84;7386721;19;20039;-82
2022/09/27 07:53:57;;;;;;;3.53;0.20;;;;;;;13.33;71.80;99794.94;7385977;19;20010;-83
2022/09/27 07:56:24;;;;;;;4.90;0.40;;;;;;;13.31;71.26;99785.59;7388256;19;20022;-84
2022/09/27 07:58:50;;;;;;;2.88;0.10;;;;;;;13.28;71.09;99784.13;7387087;19;20499;-83
2022/09/27 08:01:18;;;;;;;4.85;0.10;;;;;;;13.30;71.65;99783.97;7385713;19;20018;-84
2022/09/27 08:03:45;;;;;;;5.55;0.55;;;;;;;13.35;71.97;99781.53;7388439;19;20010;-84
2022/09/27 08:06:12;;;;;;;4.22;0.13;;;;;;;13.40;72.06;99782.59;7388058;19;20015;-83
2022/09/27 08:08:40;;;;;;;4.50;0.20;;;;;;;13.42;71.78;99782.38;7384603;19;20039;-84
2022/09/27 08:11:15;;;;;;;5.88;0.25;;;;;;;13.44;71.30;99778.53;7386056;19;20010;-83
2022/09/27 08:13:43;;;;;;;6.35;0.25;;;;;;;13.43;71.70;99787.47;7386320;19;20460;-84
2022/09/27 08:16:14;;;;;;;6.97;0.35;;;;;;;13.44;72.45;99783.81;7389038;19;20368;-85
2022/09/27 08:18:44;;;;;;;6.63;0.43;;;;;;;13.47;72.37;99783.41;7346508;19;20719;-84
2022/09/27 08:21:11;;;;;;;2.03;0.30;;;;;;;13.52;72.48;99773.06;7370804;19;20125;-84
2022/09/27 08:23:38;;;;;;;7.65;1.20;;;;;;;13.53;71.64;99769.41;7381717;19;20007;-84
2022/09/27 08:26:05;;;;;;;4.20;0.30;;;;;;;13.57;71.54;99768.00;7382992;19;20003;-83
2022/09/27 08:28:32;;;;;;;8.20;0.40;;;;;;;13.61;71.94;99763.94;7381185;19;20023;-84
2022/09/27 08:30:59;;;;;;;6.57;0.40;;;;;;;13.65;71.99;99767.84;7379765;19;20036;-85
2022/09/27 08:33:26;;;;;;;3.35;0.40;;;;;;;13.65;71.44;99759.09;7382048;19;20019;-84
2022/09/27 08:36:00;;;;;;;5.53;0.40;;;;;;;13.66;71.73;99761.50;7380487;19;20021;-84
2022/09/27 08:38:27;;;;;;;6.53;0.40;;;;;;;13.68;71.40;99763.97;7379289;19;20031;-84
2022/09/27 08:41:11;;;;;;;8.30;1.25;;;;;;;13.70;71.23;99764.59;7381230;19;20021;-86
2022/09/27 08:44:04;;;;;;;8.02;1.85;;;;;;;13.74;71.75;99757.06;7382906;19;20081;-85
2022/09/27 08:46:52;;;;;;;3.42;0.30;;;;;;;13.77;71.52;99767.22;7382298;19;20061;-84
2022/09/27 08:49:40;;;;;;;10.95;2.50;;;;;;;13.77;71.13;99762.75;7377694;19;20021;-83
2022/09/27 08:52:26;;;;;;;8.27;0.40;;;;;;;13.79;71.30;99758.09;7380715;19;20032;-83
2022/09/27 08:55:00;;;;;;;6.55;0.90;;;;;;;13.81;71.13;99753.44;7379430;19;20109;-84
2022/09/27 08:57:27;;;;;;;7.15;0.50;;;;;;;13.86;72.29;99755.47;7379654;19;20551;-84
2022/09/27 09:00:04;;;;;;;7.25;0.50;;;;;;;13.89;71.81;99749.78;7378739;19;20021;-84
2022/09/27 09:02:33;;;;;;;11.30;0.52;;;;;;;13.93;71.34;99753.63;7378906;19;20014;-85
2022/09/27 09:05:12;;;;;;;5.65;0.85;;;;;;;13.97;71.64;99758.31;7379719;19;20021;-84
2022/09/27 09:08:26;;;;;;;7.40;0.47;;;;;;;14.00;71.73;99744.72;7382442;19;20036;-84
2022/09/27 09:14:29;;;;;;;4.93;0.40;;;;;;;14.08;70.34;99746.34;7377607;19;20080;-85
2022/09/27 09:17:42;;;;;;;5.60;0.38;;;;;;;14.07;71.04;99742.88;7379759;19;20022;-84
2022/09/27 09:20:18;;;;;;;9.77;1.20;;;;;;;14.08;70.61;99752.44;7378925;19;20018;-85
2022/09/27 09:23:02;;;;;;;9.85;1.13;;;;;;;14.08;71.46;99746.34;7381223;19;20045;-85
2022/09/27 09:25:45;;;;;;;9.20;0.30;;;;;;;14.11;71.64;99744.13;7383852;19;20018;-84
2022/09/27 09:28:27;;;;;;;11.93;0.75;;;;;;;14.15;71.15;99741.88;7384027;19;20019;-84
2022/09/27 09:31:24;;;;;;;11.23;0.57;;;;;;;14.13;71.23;99736.78;7381960;19;20094;-84
2022/09/27 09:34:04;;;;;;;7.53;0.47;;;;;;;14.17;71.29;99741.69;7382557;19;20011;-84
2022/09/27 09:36:46;;;;;;;4.55;0.52;;;;;;;14.20;71.73;99735.97;7382653;19;20018;-83
2022/09/27 09:39:22;;;;;;;5.28;0.68;;;;;;;14.25;72.42;99738.81;7381648;19;20014;-84
2022/09/27 09:42:08;;;;;;;5.25;0.88;;;;;;;14.28;71.59;99736.56;7383400;19;20021;-82
2022/09/27 09:44:44;;;;;;;8.27;0.50;;;;;;;14.33;71.02;99738.59;7381556;19;20028;-83
2022/09/27 09:47:26;;;;;;;6.60;0.65;;;;;;;14.35;71.10;99734.75;7389607;19;20021;-83
2022/09/27 09:49:59;;;;;;;9.02;0.60;;;;;;;14.34;70.53;99732.31;7389273;19;20018;-84
2022/09/27 09:52:38;;;;;;;9.35;0.82;;;;;;;14.37;71.49;99731.94;7390086;19;20085;-84
2022/09/27 09:55:17;;;;;;;8.63;0.47;;;;;;;14.41;71.08;99733.16;7390636;19;20040;-83
2022/09/27 09:57:55;;;;;;;4.57;0.45;;;;;;;14.43;70.90;99726.63;7388046;19;20039;-82
2022/09/27 10:00:22;;;;;;;9.55;0.80;;;;;;;14.47;70.71;99725.22;7387039;19;20047;-86
2022/09/27 10:02:53;;;;;;;7.97;0.65;;;;;;;14.47;70.16;99722.56;7392934;19;20014;-85
2022/09/27 10:05:23;;;;;;;11.18;0.82;;;;;;;14.49;70.55;99723.16;7388449;19;20036;-82
2022/09/27 10:07:53;;;;;;;9.75;1.05;;;;;;;14.51;71.77;99713.19;7389372;19;20006;-84
2022/09/27 10:10:21;;;;;;;9.38;0.93;;;;;;;14.53;71.25;99716.44;7389289;19;20007;-84
2022/09/27 10:12:48;;;;;;;8.30;0.40;;;;;;;14.57;71.25;99710.75;7388764;19;20039;-87
2022/09/27 10:15:19;;;;;;;14.02;1.35;;;;;;;14.59;71.24;99712.16;7390380;19;20014;-85
2022/09/27 10:17:49;;;;;;;7.28;1.65;;;;;;;14.60;71.40;99703.19;7389243;19;20025;-83
2022/09/27 10:20:34;;;;;;;8.63;0.65;;;;;;;14.64;71.73;99695.63;7391998;19;20484;-85
2022/09/27 10:23:24;;;;;;;8.57;0.80;;;;;;;14.70;72.12;99689.53;7390938;19;20010;-85
2022/09/27 10:25:55;;;;;;;9.32;0.60;;;;;;;14.72;71.19;99682.19;7390297;19;20023;-86
2022/09/27 10:28:33;;;;;;;10.93;0.98;;;;;;;14.74;71.68;99680.94;7392827;19;20383;-82
2022/09/27 10:31:02;;;;;;;7.10;0.50;;;;;;;14.76;71.46;99678.09;7388854;19;20369;-84
2022/09/27 10:33:30;;;;;;;7.60;0.55;;;;;;;14.78;69.82;99676.88;7389295;19;20386;-85
2022/09/27 10:35:59;;;;;;;10.50;0.52;;;;;;;14.76;69.44;99678.91;7389749;19;21004;-82
2022/09/27 10:38:34;;;;;;;5.97;1.02;;;;;;;14.76;68.90;99668.34;7391483;19;20564;-83
2022/09/27 10:41:24;;;;;;;5.00;0.40;;;;;;;14.77;66.99;99675.25;7389894;19;20027;-86
2022/09/27 10:43:51;;;;;;;6.20;0.40;;;;;;;14.77;68.04;99675.25;7388612;19;20019;-85
2022/09/27 10:46:29;;;;;;;5.60;0.30;;;;;;;14.70;70.43;99676.28;7390541;19;20011;-83
2022/09/27 10:49:19;;;;;;;6.70;0.22;;;;;;;14.53;72.47;99666.13;7388526;19;20015;-85
2022/09/27 10:51:52;;;;;;;5.00;0.30;;;;;;;14.39;73.57;99676.97;7387418;19;20043;-84
2022/09/27 10:54:28;;;;;;;3.08;0.20;;;;;;;14.27;74.74;99662.72;7389056;19;20371;-85
2022/09/27 10:57:03;;;;;;;5.03;0.20;;;;;;;14.20;74.96;99664.53;7388578;19;20018;-83
2022/09/27 10:59:39;;;;;;;2.17;0.17;;;;;;;14.17;75.22;99664.97;7389916;19;20010;-84
2022/09/27 11:02:19;;;;;;;3.35;0.20;;;;;;;14.11;75.60;99661.28;7389345;19;20010;-84
2022/09/27 11:05:11;;;;;;;24.20;12.65;;;;;;;14.09;76.18;99656.19;7390168;19;20416;-83
2022/09/27 11:07:56;;;;;;;4.97;0.52;;;;;;;14.06;77.27;99650.50;7389108;19;20015;-83
2022/09/27 11:10:30;;;;;;;2.88;0.43;;;;;;;14.03;77.65;99657.00;7391033;19;20018;-83
2022/09/27 11:13:17;;;;;;;7.30;0.70;;;;;;;14.02;77.60;99673.06;7390025;19;20753;-85
2022/09/27 11:15:44;;;;;;;5.97;0.68;;;;;;;14.01;79.56;99684.69;7389087;19;20010;-85
2022/09/27 11:18:26;;;;;;;7.07;0.52;;;;;;;14.00;81.79;99683.88;7389967;19;20022;-83
2022/09/27 11:21:17;;;;;;;5.13;0.40;;;;;;;13.98;83.15;99677.97;7390549;19;20587;-84
2022/09/27 11:24:06;;;;;;;4.45;0.40;;;;;;;13.95;83.57;99667.00;7387731;19;20501;-83
2022/09/27 11:27:04;;;;;;;5.18;0.63;;;;;;;13.92;84.26;99662.09;7392063;19;20022;-84
2022/09/27 11:30:02;;;;;;;2.58;0.25;;;;;;;13.91;84.66;99652.56;7388618;19;20035;-83
2022/09/27 11:32:54;;;;;;;6.22;0.75;;;;;;;13.91;84.90;99652.56;7394105;19;20011;-82
2022/09/27 11:35:48;;;;;;;9.32;0.45;;;;;;;13.93;85.47;99653.97;7389329;19;20006;-83
2022/09/27 11:38:31;;;;;;;4.10;0.75;;;;;;;13.95;86.07;99646.66;7388160;19;20006;-84
2022/09/27 11:41:32;;;;;;;5.63;0.45;;;;;;;13.99;86.58;99655.81;7389984;19;20018;-83
2022/09/27 11:44:18;;;;;;;8.85;1.08;;;;;;;14.01;86.41;99637.91;7389440;19;20011;-84
2022/09/27 11:47:20;;;;;;;6.65;0.52;;;;;;;14.01;86.18;99645.03;7388068;19;20010;-83
2022/09/27 11:50:24;;;;;;;7.22;0.60;;;;;;;14.03;86.31;99637.69;7385603;19;20093;-86
2022/09/27 11:53:17;;;;;;;8.70;0.50;;;;;;;14.07;87.00;99641.53;7387535;19;20021;-83
2022/09/27 11:55:52;;;;;;;;;;;;;;;14.12;87.15;99634.63;7388073;19;20097;-83
2022/09/27 11:58:38;;;;;;;4.55;0.30;;;;;;;14.10;86.54;99634.03;7387619;19;19919;-83
2022/09/27 12:01:37;;;;;;;3.95;0.22;;;;;;;14.09;85.65;99637.69;7388163;19;20014;-83
2022/09/27 12:04:10;;;;;;;5.30;0.30;;;;;;;14.14;85.56;99631.78;7388930;19;20014;-84
2022/09/27 12:06:45;;;;;;;;;;;;;;;14.17;84.33;99625.28;7389245;19;20022;-85
2022/09/27 12:09:21;;;;;;;5.25;0.60;;;;;;;14.20;84.61;99616.91;7388023;19;19926;-82
2022/09/27 12:11:53;;;;;;;1.40;0.40;;;;;;;14.27;85.44;99621.19;7389384;19;20011;-84
2022/09/27 12:14:44;;;;;;;3.17;0.30;;;;;;;14.31;82.84;99600.41;7387415;19;20436;-83
2022/09/27 12:17:17;;;;;;;2.88;0.10;;;;;;;14.33;82.58;99604.47;7389815;19;20018;-83